sensor_id;sensor_type;location;lat;lon;timestamp;P1;P2;P0
46591;PMS6003;32314;48.748;9.656;2023-08-07T00:01:19;0.00;0.00;0.00
46591;PMS6003;32314;48.748;9.656;2023-08-07T00:04:30;3.00;0.00;0.00
46591;PMS6003;32314;48.748;9.656;2023-08-07T00:07:22;0.00;0.00;0.00
46591;PMS6003;32314;48.748;9.656;2023-08-07T00:10:11;0.00;0.00;0.00
46591;PMS6003;32314;48.748;9.656;2023-08-07T00:13:11;0.00;0.00;0.00
46591;PMS6003;32314;48.748;9.656;2023-08-07T00:16:00;0.00;0.00;0.00
46591;PMS6003;32314;48.748;9.656;2023-08-07T00:18:46;0.25;0.25;0.25
46591;PMS6003;32314;48.748;9.656;2023-08-07T00:21:37;0.50;0.00;0.00
46591;PMS6003;32314;48.748;9.656;2023-08-07T00:24:27;0.00;0.00;0.00
46591;PMS6003;32314;48.748;9.656;2023-08-07T00:27:36;0.50;0.50;0.00
46591;PMS6003;32314;48.748;9.656;2023-08-07T00:30:39;0.75;0.00;0.00
46591;PMS6003;32314;48.748;9.656;2023-08-07T00:33:46;0.00;0.00;0.00
46591;PMS6003;32314;48.748;9.656;2023-08-07T00:36:42;0.00;0.00;0.00
46591;PMS6003;32314;48.748;9.656;2023-08-07T00:39:42;0.00;0.00;0.00
46591;PMS6003;32314;48.748;9.656;2023-08-07T00:42:32;0.75;0.75;0.75
46591;PMS6003;32314;48.748;9.656;2023-08-07T00:45:30;0.00;0.00;0.00
46591;PMS6003;32314;48.748;9.656;2023-08-07T00:48:28;0.00;0.00;0.00
46591;PMS6003;32314;48.748;9.656;2023-08-07T00:51:30;0.00;0.00;0.00
46591;PMS6003;32314;48.748;9.656;2023-08-07T00:54:21;1.00;1.00;0.00
46591;PMS6003;32314;48.748;9.656;2023-08-07T00:57:10;1.00;0.00;0.00
46591;PMS6003;32314;48.748;9.656;2023-08-07T01:00:02;0.00;0.00;0.00
46591;PMS6003;32314;48.748;9.656;2023-08-07T01:03:01;0.00;0.00;0.00
46591;PMS6003;32314;48.748;9.656;2023-08-07T01:05:55;0.00;0.00;0.00
46591;PMS6003;32314;48.748;9.656;2023-08-07T01:08:47;0.00;0.00;0.00
46591;PMS6003;32314;48.748;9.656;2023-08-07T01:11:53;0.00;0.00;0.00
46591;PMS6003;32314;48.748;9.656;2023-08-07T01:17:58;0.00;0.00;0.00
46591;PMS6003;32314;48.748;9.656;2023-08-07T01:20:47;1.75;0.00;0.00
46591;PMS6003;32314;48.748;9.656;2023-08-07T01:23:35;0.00;0.00;0.00
46591;PMS6003;32314;48.748;9.656;2023-08-07T01:26:33;0.00;0.00;0.00
46591;PMS6003;32314;48.748;9.656;2023-08-07T01:29:34;0.50;0.00;0.00
46591;PMS6003;32314;48.748;9.656;2023-08-07T01:32:31;0.00;0.00;0.00
46591;PMS6003;32314;48.748;9.656;2023-08-07T01:35:22;0.00;0.00;0.00
46591;PMS6003;32314;48.748;9.656;2023-08-07T01:38:23;0.00;0.00;0.00
46591;PMS6003;32314;48.748;9.656;2023-08-07T01:41:21;0.00;0.00;0.00
46591;PMS6003;32314;48.748;9.656;2023-08-07T01:44:14;0.00;0.00;0.00
46591;PMS6003;32314;48.748;9.656;2023-08-07T01:47:08;0.00;0.00;0.00
46591;PMS6003;32314;48.748;9.656;2023-08-07T01:49:57;0.00;0.00;0.00
46591;PMS6003;32314;48.748;9.656;2023-08-07T01:52:42;0.00;0.00;0.00
46591;PMS6003;32314;48.748;9.656;2023-08-07T01:55:37;0.00;0.00;0.00
46591;PMS6003;32314;48.748;9.656;2023-08-07T01:58:27;1.00;1.00;0.00
46591;PMS6003;32314;48.748;9.656;2023-08-07T02:01:21;0.00;0.00;0.00
46591;PMS6003;32314;48.748;9.656;2023-08-07T02:04:16;0.00;0.00;0.00
46591;PMS6003;32314;48.748;9.656;2023-08-07T02:07:17;0.00;0.00;0.00
46591;PMS6003;32314;48.748;9.656;2023-08-07T02:10:06;0.00;0.00;0.00
46591;PMS6003;32314;48.748;9.656;2023-08-07T02:13:04;0.00;0.00;0.00
46591;PMS6003;32314;48.748;9.656;2023-08-07T02:15:56;1.00;0.00;0.00
46591;PMS6003;32314;48.748;9.656;2023-08-07T02:18:51;0.00;0.00;0.00
46591;PMS6003;32314;48.748;9.656;2023-08-07T02:21:42;0.00;0.00;0.00
46591;PMS6003;32314;48.748;9.656;2023-08-07T02:24:34;1.00;1.00;1.00
46591;PMS6003;32314;48.748;9.656;2023-08-07T02:27:27;0.00;0.00;0.00
46591;PMS6003;32314;48.748;9.656;2023-08-07T02:30:22;0.00;0.00;0.00
46591;PMS6003;32314;48.748;9.656;2023-08-07T02:33:09;0.00;0.00;0.00
46591;PMS6003;32314;48.748;9.656;2023-08-07T02:35:55;0.00;0.00;0.00
46591;PMS6003;32314;48.748;9.656;2023-08-07T02:38:40;0.00;0.00;0.00
46591;PMS6003;32314;48.748;9.656;2023-08-07T02:41:27;1.00;0.00;0.00
46591;PMS6003;32314;48.748;9.656;2023-08-07T02:44:20;0.75;0.75;0.00
46591;PMS6003;32314;48.748;9.656;2023-08-07T02:47:11;0.00;0.00;0.00
46591;PMS6003;32314;48.748;9.656;2023-08-07T02:49:57;2.00;0.00;0.00
46591;PMS6003;32314;48.748;9.656;2023-08-07T02:52:43;0.00;0.00;0.00
46591;PMS6003;32314;48.748;9.656;2023-08-07T02:55:37;0.00;0.00;0.00
46591;PMS6003;32314;48.748;9.656;2023-08-07T02:58:37;0.00;0.00;0.00
46591;PMS6003;32314;48.748;9.656;2023-08-07T03:01:30;0.00;0.00;0.00
46591;PMS6003;32314;48.748;9.656;2023-08-07T03:04:19;0.00;0.00;0.00
46591;PMS6003;32314;48.748;9.656;2023-08-07T03:07:08;0.00;0.00;0.00
46591;PMS6003;32314;48.748;9.656;2023-08-07T03:10:02;0.00;0.00;0.00
46591;PMS6003;32314;48.748;9.656;2023-08-07T03:12:50;1.00;0.00;0.00
46591;PMS6003;32314;48.748;9.656;2023-08-07T03:15:45;0.00;0.00;0.00
46591;PMS6003;32314;48.748;9.656;2023-08-07T03:18:42;0.00;0.00;0.00
46591;PMS6003;32314;48.748;9.656;2023-08-07T03:21:33;3.00;0.00;0.00
46591;PMS6003;32314;48.748;9.656;2023-08-07T03:24:21;0.00;0.00;0.00
46591;PMS6003;32314;48.748;9.656;2023-08-07T03:27:18;0.00;0.00;0.00
46591;PMS6003;32314;48.748;9.656;2023-08-07T03:33:38;0.00;0.00;0.00
46591;PMS6003;32314;48.748;9.656;2023-08-07T03:36:30;0.00;0.00;0.00
46591;PMS6003;32314;48.748;9.656;2023-08-07T03:39:33;0.00;0.00;0.00
46591;PMS6003;32314;48.748;9.656;2023-08-07T03:42:46;0.00;0.00;0.00
46591;PMS6003;32314;48.748;9.656;2023-08-07T03:45:40;2.00;0.00;0.00
46591;PMS6003;32314;48.748;9.656;2023-08-07T03:48:35;0.00;0.00;0.00
46591;PMS6003;32314;48.748;9.656;2023-08-07T03:51:30;0.00;0.00;0.00
46591;PMS6003;32314;48.748;9.656;2023-08-07T03:54:18;0.00;0.00;0.00
46591;PMS6003;32314;48.748;9.656;2023-08-07T03:57:17;0.50;0.50;0.00
46591;PMS6003;32314;48.748;9.656;2023-08-07T04:00:07;0.00;0.00;0.00
46591;PMS6003;32314;48.748;9.656;2023-08-07T04:02:59;1.00;0.00;0.00
46591;PMS6003;32314;48.748;9.656;2023-08-07T04:05:58;0.00;0.00;0.00
46591;PMS6003;32314;48.748;9.656;2023-08-07T04:08:50;3.00;0.00;0.00
46591;PMS6003;32314;48.748;9.656;2023-08-07T04:11:36;0.00;0.00;0.00
46591;PMS6003;32314;48.748;9.656;2023-08-07T04:17:38;0.00;0.00;0.00
46591;PMS6003;32314;48.748;9.656;2023-08-07T04:20:28;0.00;0.00;0.00
46591;PMS6003;32314;48.748;9.656;2023-08-07T04:23:17;0.00;0.00;0.00
46591;PMS6003;32314;48.748;9.656;2023-08-07T04:26:03;1.00;0.00;0.00
46591;PMS6003;32314;48.748;9.656;2023-08-07T04:28:58;1.50;0.00;0.00
46591;PMS6003;32314;48.748;9.656;2023-08-07T04:31:58;0.00;0.00;0.00
46591;PMS6003;32314;48.748;9.656;2023-08-07T04:34:50;0.00;0.00;0.00
46591;PMS6003;32314;48.748;9.656;2023-08-07T04:37:50;0.50;0.00;0.00
46591;PMS6003;32314;48.748;9.656;2023-08-07T04:40:49;0.00;0.00;0.00
46591;PMS6003;32314;48.748;9.656;2023-08-07T04:43:43;0.00;0.00;0.00
46591;PMS6003;32314;48.748;9.656;2023-08-07T04:46:41;0.00;0.00;0.00
46591;PMS6003;32314;48.748;9.656;2023-08-07T04:49:30;3.00;1.00;0.00
46591;PMS6003;32314;48.748;9.656;2023-08-07T04:52:37;0.00;0.00;0.00
46591;PMS6003;32314;48.748;9.656;2023-08-07T04:55:29;0.00;0.00;0.00
46591;PMS6003;32314;48.748;9.656;2023-08-07T05:58:19;1.50;0.00;0.00
46591;PMS6003;32314;48.748;9.656;2023-08-07T06:01:10;0.00;0.00;0.00
46591;PMS6003;32314;48.748;9.656;2023-08-07T06:04:05;0.00;0.00;0.00
46591;PMS6003;32314;48.748;9.656;2023-08-07T06:07:00;3.00;1.00;0.00
46591;PMS6003;32314;48.748;9.656;2023-08-07T06:10:14;0.00;0.00;0.00
46591;PMS6003;32314;48.748;9.656;2023-08-07T06:13:06;2.00;0.00;0.00
46591;PMS6003;32314;48.748;9.656;2023-08-07T06:16:04;2.25;0.00;0.00
46591;PMS6003;32314;48.748;9.656;2023-08-07T06:19:21;0.00;0.00;0.00
46591;PMS6003;32314;48.748;9.656;2023-08-07T06:22:17;0.00;0.00;0.00
46591;PMS6003;32314;48.748;9.656;2023-08-07T06:25:13;0.00;0.00;0.00
46591;PMS6003;32314;48.748;9.656;2023-08-07T06:28:48;0.00;0.00;0.00
46591;PMS6003;32314;48.748;9.656;2023-08-07T06:31:59;0.00;0.00;0.00
46591;PMS6003;32314;48.748;9.656;2023-08-07T06:34:52;0.00;0.00;0.00
46591;PMS6003;32314;48.748;9.656;2023-08-07T06:38:06;0.75;0.75;0.00
46591;PMS6003;32314;48.748;9.656;2023-08-07T06:41:16;0.00;0.00;0.00
46591;PMS6003;32314;48.748;9.656;2023-08-07T06:44:12;3.00;0.00;0.00
46591;PMS6003;32314;48.748;9.656;2023-08-07T06:47:30;0.00;0.00;0.00
46591;PMS6003;32314;48.748;9.656;2023-08-07T06:50:42;0.50;0.00;0.00
46591;PMS6003;32314;48.748;9.656;2023-08-07T06:53:33;0.00;0.00;0.00
46591;PMS6003;32314;48.748;9.656;2023-08-07T06:56:34;0.00;0.00;0.00
46591;PMS6003;32314;48.748;9.656;2023-08-07T06:59:40;0.00;0.00;0.00
46591;PMS6003;32314;48.748;9.656;2023-08-07T07:02:42;11.50;0.75;0.75
46591;PMS6003;32314;48.748;9.656;2023-08-07T07:06:01;0.00;0.00;0.00
46591;PMS6003;32314;48.748;9.656;2023-08-07T07:09:28;0.00;0.00;0.00
46591;PMS6003;32314;48.748;9.656;2023-08-07T07:12:50;0.00;0.00;0.00
46591;PMS6003;32314;48.748;9.656;2023-08-07T07:16:27;0.00;0.00;0.00
46591;PMS6003;32314;48.748;9.656;2023-08-07T07:22:42;0.00;0.00;0.00
46591;PMS6003;32314;48.748;9.656;2023-08-07T07:26:06;1.00;0.00;0.00
46591;PMS6003;32314;48.748;9.656;2023-08-07T07:32:10;0.00;0.00;0.00
46591;PMS6003;32314;48.748;9.656;2023-08-07T07:35:34;0.00;0.00;0.00
46591;PMS6003;32314;48.748;9.656;2023-08-07T07:39:05;0.00;0.00;0.00
46591;PMS6003;32314;48.748;9.656;2023-08-07T07:42:02;0.00;0.00;0.00
46591;PMS6003;32314;48.748;9.656;2023-08-07T07:44:58;0.00;0.00;0.00
46591;PMS6003;32314;48.748;9.656;2023-08-07T07:47:47;1.00;1.00;1.00
46591;PMS6003;32314;48.748;9.656;2023-08-07T07:51:06;1.00;1.00;0.75
46591;PMS6003;32314;48.748;9.656;2023-08-07T07:57:43;0.00;0.00;0.00
46591;PMS6003;32314;48.748;9.656;2023-08-07T08:01:01;0.00;0.00;0.00
46591;PMS6003;32314;48.748;9.656;2023-08-07T08:04:00;3.00;0.75;0.00
46591;PMS6003;32314;48.748;9.656;2023-08-07T09:15:01;0.00;0.00;0.00
46591;PMS6003;32314;48.748;9.656;2023-08-07T09:18:09;0.00;0.00;0.00
46591;PMS6003;32314;48.748;9.656;2023-08-07T09:21:08;0.00;0.00;0.00
46591;PMS6003;32314;48.748;9.656;2023-08-07T09:24:26;0.00;0.00;0.00
46591;PMS6003;32314;48.748;9.656;2023-08-07T09:27:13;0.00;0.00;0.00
46591;PMS6003;32314;48.748;9.656;2023-08-07T09:30:25;0.00;0.00;0.00
46591;PMS6003;32314;48.748;9.656;2023-08-07T09:33:35;1.25;1.25;1.00
46591;PMS6003;32314;48.748;9.656;2023-08-07T09:39:34;0.00;0.00;0.00
46591;PMS6003;32314;48.748;9.656;2023-08-07T09:42:23;0.00;0.00;0.00
46591;PMS6003;32314;48.748;9.656;2023-08-07T09:45:27;0.00;0.00;0.00
46591;PMS6003;32314;48.748;9.656;2023-08-07T09:48:22;0.00;0.00;0.00
46591;PMS6003;32314;48.748;9.656;2023-08-07T09:51:35;0.00;0.00;0.00
46591;PMS6003;32314;48.748;9.656;2023-08-07T09:54:30;0.75;0.00;0.00
46591;PMS6003;32314;48.748;9.656;2023-08-07T09:57:34;0.00;0.00;0.00
46591;PMS6003;32314;48.748;9.656;2023-08-07T10:00:27;0.00;0.00;0.00
46591;PMS6003;32314;48.748;9.656;2023-08-07T10:03:15;1.00;0.00;0.00
46591;PMS6003;32314;48.748;9.656;2023-08-07T10:06:13;0.00;0.00;0.00
46591;PMS6003;32314;48.748;9.656;2023-08-07T10:09:09;0.00;0.00;0.00
46591;PMS6003;32314;48.748;9.656;2023-08-07T10:12:04;0.00;0.00;0.00
46591;PMS6003;32314;48.748;9.656;2023-08-07T10:14:56;0.00;0.00;0.00
46591;PMS6003;32314;48.748;9.656;2023-08-07T10:17:49;0.00;0.00;0.00
46591;PMS6003;32314;48.748;9.656;2023-08-07T10:20:38;0.00;0.00;0.00
46591;PMS6003;32314;48.748;9.656;2023-08-07T10:23:36;0.00;0.00;0.00
46591;PMS6003;32314;48.748;9.656;2023-08-07T10:26:54;0.00;0.00;0.00
46591;PMS6003;32314;48.748;9.656;2023-08-07T10:29:58;0.00;0.00;0.00
46591;PMS6003;32314;48.748;9.656;2023-08-07T10:33:04;0.00;0.00;0.00
46591;PMS6003;32314;48.748;9.656;2023-08-07T10:35:51;0.00;0.00;0.00
46591;PMS6003;32314;48.748;9.656;2023-08-07T10:38:38;0.00;0.00;0.00
46591;PMS6003;32314;48.748;9.656;2023-08-07T10:41:24;0.00;0.00;0.00
46591;PMS6003;32314;48.748;9.656;2023-08-07T10:44:17;0.00;0.00;0.00
46591;PMS6003;32314;48.748;9.656;2023-08-07T10:47:03;1.00;0.00;0.00
46591;PMS6003;32314;48.748;9.656;2023-08-07T10:49:49;0.00;0.00;0.00
46591;PMS6003;32314;48.748;9.656;2023-08-07T10:52:44;0.00;0.00;0.00
46591;PMS6003;32314;48.748;9.656;2023-08-07T10:55:44;0.00;0.00;0.00
46591;PMS6003;32314;48.748;9.656;2023-08-07T10:58:35;0.00;0.00;0.00
46591;PMS6003;32314;48.748;9.656;2023-08-07T11:04:16;0.00;0.00;0.00
46591;PMS6003;32314;48.748;9.656;2023-08-07T11:07:02;0.00;0.00;0.00
46591;PMS6003;32314;48.748;9.656;2023-08-07T11:09:48;0.00;0.00;0.00
46591;PMS6003;32314;48.748;9.656;2023-08-07T11:12:34;1.75;0.00;0.00
46591;PMS6003;32314;48.748;9.656;2023-08-07T11:15:21;1.00;1.00;1.00
46591;PMS6003;32314;48.748;9.656;2023-08-07T11:18:07;1.75;1.75;1.00
46591;PMS6003;32314;48.748;9.656;2023-08-07T11:20:54;0.00;0.00;0.00
46591;PMS6003;32314;48.748;9.656;2023-08-07T11:23:41;2.00;2.00;1.75
46591;PMS6003;32314;48.748;9.656;2023-08-07T11:26:29;1.00;1.00;0.00
46591;PMS6003;32314;48.748;9.656;2023-08-07T11:29:18;0.00;0.00;0.00
46591;PMS6003;32314;48.748;9.656;2023-08-07T11:32:04;1.00;1.00;1.00
46591;PMS6003;32314;48.748;9.656;2023-08-07T11:34:51;1.00;1.00;1.00
46591;PMS6003;32314;48.748;9.656;2023-08-07T11:37:46;1.00;1.00;1.00
46591;PMS6003;32314;48.748;9.656;2023-08-07T11:40:36;1.00;1.00;1.00
46591;PMS6003;32314;48.748;9.656;2023-08-07T11:43:22;1.00;1.00;1.00
46591;PMS6003;32314;48.748;9.656;2023-08-07T11:46:08;1.00;1.00;0.50
46591;PMS6003;32314;48.748;9.656;2023-08-07T11:48:55;0.00;0.00;0.00
46591;PMS6003;32314;48.748;9.656;2023-08-07T11:51:41;1.25;1.25;1.00
46591;PMS6003;32314;48.748;9.656;2023-08-07T11:54:28;2.00;2.00;1.25
46591;PMS6003;32314;48.748;9.656;2023-08-07T11:57:17;0.00;0.00;0.00
46591;PMS6003;32314;48.748;9.656;2023-08-07T12:00:06;0.00;0.00;0.00
46591;PMS6003;32314;48.748;9.656;2023-08-07T12:02:56;0.00;0.00;0.00
46591;PMS6003;32314;48.748;9.656;2023-08-07T12:05:42;0.00;0.00;0.00
46591;PMS6003;32314;48.748;9.656;2023-08-07T12:08:34;0.00;0.00;0.00
46591;PMS6003;32314;48.748;9.656;2023-08-07T12:11:25;0.75;0.00;0.00
46591;PMS6003;32314;48.748;9.656;2023-08-07T12:14:13;0.50;0.00;0.00
46591;PMS6003;32314;48.748;9.656;2023-08-07T12:17:01;0.00;0.00;0.00
46591;PMS6003;32314;48.748;9.656;2023-08-07T12:19:51;0.00;0.00;0.00
46591;PMS6003;32314;48.748;9.656;2023-08-07T12:22:36;0.00;0.00;0.00
46591;PMS6003;32314;48.748;9.656;2023-08-07T12:25:22;0.00;0.00;0.00
46591;PMS6003;32314;48.748;9.656;2023-08-07T12:28:08;0.00;0.00;0.00
46591;PMS6003;32314;48.748;9.656;2023-08-07T12:30:54;0.00;0.00;0.00
46591;PMS6003;32314;48.748;9.656;2023-08-07T12:33:41;0.00;0.00;0.00
46591;PMS6003;32314;48.748;9.656;2023-08-07T12:36:27;0.00;0.00;0.00
46591;PMS6003;32314;48.748;9.656;2023-08-07T12:39:13;0.00;0.00;0.00
46591;PMS6003;32314;48.748;9.656;2023-08-07T12:41:58;0.00;0.00;0.00
46591;PMS6003;32314;48.748;9.656;2023-08-07T12:44:44;0.00;0.00;0.00
46591;PMS6003;32314;48.748;9.656;2023-08-07T12:47:30;0.00;0.00;0.00
46591;PMS6003;32314;48.748;9.656;2023-08-07T12:50:16;1.00;1.00;0.25
46591;PMS6003;32314;48.748;9.656;2023-08-07T12:53:02;1.75;1.75;1.75
46591;PMS6003;32314;48.748;9.656;2023-08-07T12:55:48;0.00;0.00;0.00
46591;PMS6003;32314;48.748;9.656;2023-08-07T12:58:34;0.00;0.00;0.00
46591;PMS6003;32314;48.748;9.656;2023-08-07T13:01:20;0.00;0.00;0.00
46591;PMS6003;32314;48.748;9.656;2023-08-07T13:04:09;0.00;0.00;0.00
46591;PMS6003;32314;48.748;9.656;2023-08-07T13:06:56;0.00;0.00;0.00
46591;PMS6003;32314;48.748;9.656;2023-08-07T13:09:42;2.00;2.00;2.00
46591;PMS6003;32314;48.748;9.656;2023-08-07T13:12:28;2.00;2.00;2.00
46591;PMS6003;32314;48.748;9.656;2023-08-07T13:15:14;2.50;2.50;1.75
46591;PMS6003;32314;48.748;9.656;2023-08-07T13:18:01;1.75;1.75;1.25
46591;PMS6003;32314;48.748;9.656;2023-08-07T13:20:48;3.00;3.00;2.00
46591;PMS6003;32314;48.748;9.656;2023-08-07T13:23:34;0.00;0.00;0.00
46591;PMS6003;32314;48.748;9.656;2023-08-07T13:26:20;0.75;0.75;0.75
46591;PMS6003;32314;48.748;9.656;2023-08-07T13:29:06;0.50;0.50;0.00
46591;PMS6003;32314;48.748;9.656;2023-08-07T13:31:51;0.00;0.00;0.00
46591;PMS6003;32314;48.748;9.656;2023-08-07T13:34:38;0.00;0.00;0.00
46591;PMS6003;32314;48.748;9.656;2023-08-07T13:37:24;0.75;0.75;0.00
46591;PMS6003;32314;48.748;9.656;2023-08-07T13:40:10;0.00;0.00;0.00
46591;PMS6003;32314;48.748;9.656;2023-08-07T13:42:56;1.00;1.00;1.00
46591;PMS6003;32314;48.748;9.656;2023-08-07T13:45:42;0.00;0.00;0.00
46591;PMS6003;32314;48.748;9.656;2023-08-07T13:48:28;0.00;0.00;0.00
46591;PMS6003;32314;48.748;9.656;2023-08-07T13:51:14;2.50;2.50;2.00
46591;PMS6003;32314;48.748;9.656;2023-08-07T13:54:00;6.00;4.00;4.00
46591;PMS6003;32314;48.748;9.656;2023-08-07T13:56:46;3.00;3.00;2.75
46591;PMS6003;32314;48.748;9.656;2023-08-07T13:59:31;2.00;2.00;2.00
46591;PMS6003;32314;48.748;9.656;2023-08-07T14:02:17;3.50;3.50;3.00
46591;PMS6003;32314;48.748;9.656;2023-08-07T14:05:03;4.00;4.00;3.75
46591;PMS6003;32314;48.748;9.656;2023-08-07T14:07:49;3.00;3.00;3.00
46591;PMS6003;32314;48.748;9.656;2023-08-07T14:13:26;2.00;2.00;2.00
46591;PMS6003;32314;48.748;9.656;2023-08-07T14:16:12;4.00;2.00;2.00
46591;PMS6003;32314;48.748;9.656;2023-08-07T14:18:58;3.75;3.75;3.00
46591;PMS6003;32314;48.748;9.656;2023-08-07T14:21:44;2.25;2.25;2.00
46591;PMS6003;32314;48.748;9.656;2023-08-07T14:24:30;2.00;2.00;2.00
46591;PMS6003;32314;48.748;9.656;2023-08-07T14:27:15;2.00;2.00;2.00
46591;PMS6003;32314;48.748;9.656;2023-08-07T14:30:01;1.00;1.00;0.00
46591;PMS6003;32314;48.748;9.656;2023-08-07T14:32:48;0.50;0.50;0.50
46591;PMS6003;32314;48.748;9.656;2023-08-07T14:35:34;2.25;2.25;2.00
46591;PMS6003;32314;48.748;9.656;2023-08-07T14:38:20;2.75;2.75;2.50
46591;PMS6003;32314;48.748;9.656;2023-08-07T14:41:06;3.00;3.00;3.00
46591;PMS6003;32314;48.748;9.656;2023-08-07T14:43:52;1.00;1.00;1.00
46591;PMS6003;32314;48.748;9.656;2023-08-07T14:46:37;4.50;3.00;3.00
46591;PMS6003;32314;48.748;9.656;2023-08-07T14:49:23;4.00;4.00;3.00
46591;PMS6003;32314;48.748;9.656;2023-08-07T14:52:09;0.75;0.75;0.75
46591;PMS6003;32314;48.748;9.656;2023-08-07T14:54:55;2.00;2.00;2.00
46591;PMS6003;32314;48.748;9.656;2023-08-07T14:57:42;2.50;2.50;2.50
46591;PMS6003;32314;48.748;9.656;2023-08-07T15:00:28;3.00;3.00;2.75
46591;PMS6003;32314;48.748;9.656;2023-08-07T15:03:14;2.00;2.00;2.00
46591;PMS6003;32314;48.748;9.656;2023-08-07T15:06:00;3.00;3.00;3.00
46591;PMS6003;32314;48.748;9.656;2023-08-07T15:08:46;3.25;3.00;2.00
46591;PMS6003;32314;48.748;9.656;2023-08-07T15:11:31;3.00;3.00;2.25
46591;PMS6003;32314;48.748;9.656;2023-08-07T15:14:17;4.00;4.00;2.50
46591;PMS6003;32314;48.748;9.656;2023-08-07T15:17:03;1.00;1.00;0.50
46591;PMS6003;32314;48.748;9.656;2023-08-07T15:19:49;0.25;0.25;0.00
46591;PMS6003;32314;48.748;9.656;2023-08-07T15:22:35;0.00;0.00;0.00
46591;PMS6003;32314;48.748;9.656;2023-08-07T15:25:21;3.00;0.00;0.00
46591;PMS6003;32314;48.748;9.656;2023-08-07T15:28:07;0.00;0.00;0.00
46591;PMS6003;32314;48.748;9.656;2023-08-07T15:30:52;1.00;0.00;0.00
46591;PMS6003;32314;48.748;9.656;2023-08-07T15:33:38;2.25;2.25;2.00
46591;PMS6003;32314;48.748;9.656;2023-08-07T15:36:24;2.00;2.00;2.00
46591;PMS6003;32314;48.748;9.656;2023-08-07T15:39:10;0.00;0.00;0.00
46591;PMS6003;32314;48.748;9.656;2023-08-07T15:41:57;1.00;1.00;1.00
46591;PMS6003;32314;48.748;9.656;2023-08-07T15:44:43;2.25;2.25;2.00
46591;PMS6003;32314;48.748;9.656;2023-08-07T15:47:28;3.00;3.00;2.75
46591;PMS6003;32314;48.748;9.656;2023-08-07T15:50:17;2.25;2.25;2.00
46591;PMS6003;32314;48.748;9.656;2023-08-07T15:53:21;2.00;2.00;2.00
46591;PMS6003;32314;48.748;9.656;2023-08-07T15:56:16;3.50;3.50;2.75
46591;PMS6003;32314;48.748;9.656;2023-08-07T15:59:09;4.00;3.00;2.75
46591;PMS6003;32314;48.748;9.656;2023-08-07T16:01:58;4.25;3.75;3.00
46591;PMS6003;32314;48.748;9.656;2023-08-07T16:04:49;3.00;3.00;3.00
46591;PMS6003;32314;48.748;9.656;2023-08-07T16:08:06;3.00;3.00;2.50
46591;PMS6003;32314;48.748;9.656;2023-08-07T16:11:07;2.25;2.25;2.00
46591;PMS6003;32314;48.748;9.656;2023-08-07T16:14:11;1.00;1.00;1.00
46591;PMS6003;32314;48.748;9.656;2023-08-07T16:17:42;4.00;4.00;3.00
46591;PMS6003;32314;48.748;9.656;2023-08-07T16:20:41;1.50;1.50;1.00
46591;PMS6003;32314;48.748;9.656;2023-08-07T16:23:52;0.00;0.00;0.00
46591;PMS6003;32314;48.748;9.656;2023-08-07T16:26:49;0.00;0.00;0.00
46591;PMS6003;32314;48.748;9.656;2023-08-07T16:32:56;0.00;0.00;0.00
46591;PMS6003;32314;48.748;9.656;2023-08-07T16:36:02;3.00;3.00;2.50
46591;PMS6003;32314;48.748;9.656;2023-08-07T16:38:53;3.50;3.50;3.25
46591;PMS6003;32314;48.748;9.656;2023-08-07T16:41:45;2.00;2.00;2.00
46591;PMS6003;32314;48.748;9.656;2023-08-07T16:47:56;4.00;2.00;2.00
46591;PMS6003;32314;48.748;9.656;2023-08-07T16:51:00;2.00;2.00;2.00
46591;PMS6003;32314;48.748;9.656;2023-08-07T16:53:59;2.25;2.25;2.00
46591;PMS6003;32314;48.748;9.656;2023-08-07T16:56:51;2.00;2.00;2.00
46591;PMS6003;32314;48.748;9.656;2023-08-07T17:00:09;3.75;3.75;3.75
46591;PMS6003;32314;48.748;9.656;2023-08-07T17:03:10;2.50;2.50;2.00
46591;PMS6003;32314;48.748;9.656;2023-08-07T17:06:17;0.00;0.00;0.00
46591;PMS6003;32314;48.748;9.656;2023-08-07T17:09:13;0.75;0.75;0.50
46591;PMS6003;32314;48.748;9.656;2023-08-07T17:12:34;1.00;1.00;0.00
46591;PMS6003;32314;48.748;9.656;2023-08-07T17:15:26;0.00;0.00;0.00
46591;PMS6003;32314;48.748;9.656;2023-08-07T17:18:33;3.75;0.00;0.00
46591;PMS6003;32314;48.748;9.656;2023-08-07T17:21:29;0.75;0.75;0.00
46591;PMS6003;32314;48.748;9.656;2023-08-07T17:24:36;0.25;0.25;0.25
46591;PMS6003;32314;48.748;9.656;2023-08-07T17:27:29;0.25;0.25;0.00
46591;PMS6003;32314;48.748;9.656;2023-08-07T17:30:44;0.25;0.25;0.25
46591;PMS6003;32314;48.748;9.656;2023-08-07T17:33:56;1.00;1.00;0.00
46591;PMS6003;32314;48.748;9.656;2023-08-07T17:37:25;0.50;0.50;0.50
46591;PMS6003;32314;48.748;9.656;2023-08-07T17:40:16;5.00;2.00;2.00
46591;PMS6003;32314;48.748;9.656;2023-08-07T17:46:18;1.00;1.00;1.00
46591;PMS6003;32314;48.748;9.656;2023-08-07T17:49:31;3.00;0.25;0.00
46591;PMS6003;32314;48.748;9.656;2023-08-07T17:52:29;2.50;0.25;0.25
46591;PMS6003;32314;48.748;9.656;2023-08-07T17:55:29;3.00;1.00;1.00
46591;PMS6003;32314;48.748;9.656;2023-08-07T17:58:26;0.00;0.00;0.00
46591;PMS6003;32314;48.748;9.656;2023-08-07T18:01:24;0.00;0.00;0.00
46591;PMS6003;32314;48.748;9.656;2023-08-07T18:04:20;2.25;0.00;0.00
46591;PMS6003;32314;48.748;9.656;2023-08-07T18:07:25;3.00;3.00;3.00
46591;PMS6003;32314;48.748;9.656;2023-08-07T18:13:54;2.75;2.75;1.75
46591;PMS6003;32314;48.748;9.656;2023-08-07T18:17:09;3.00;3.00;2.00
46591;PMS6003;32314;48.748;9.656;2023-08-07T18:20:23;5.25;1.50;1.00
46591;PMS6003;32314;48.748;9.656;2023-08-07T18:23:40;3.00;3.00;3.00
46591;PMS6003;32314;48.748;9.656;2023-08-07T18:26:48;3.00;3.00;2.50
46591;PMS6003;32314;48.748;9.656;2023-08-07T18:29:43;1.00;1.00;1.00
46591;PMS6003;32314;48.748;9.656;2023-08-07T18:32:44;0.00;0.00;0.00
46591;PMS6003;32314;48.748;9.656;2023-08-07T18:35:43;0.00;0.00;0.00
46591;PMS6003;32314;48.748;9.656;2023-08-07T18:38:38;0.00;0.00;0.00
46591;PMS6003;32314;48.748;9.656;2023-08-07T18:41:47;0.50;0.50;0.00
46591;PMS6003;32314;48.748;9.656;2023-08-07T18:44:41;1.00;1.00;1.00
46591;PMS6003;32314;48.748;9.656;2023-08-07T18:47:38;3.00;0.25;0.00
46591;PMS6003;32314;48.748;9.656;2023-08-07T18:50:35;0.00;0.00;0.00
46591;PMS6003;32314;48.748;9.656;2023-08-07T18:53:31;1.00;1.00;1.00
46591;PMS6003;32314;48.748;9.656;2023-08-07T18:56:23;0.00;0.00;0.00
46591;PMS6003;32314;48.748;9.656;2023-08-07T18:59:21;0.00;0.00;0.00
46591;PMS6003;32314;48.748;9.656;2023-08-07T19:02:31;0.75;0.75;0.75
46591;PMS6003;32314;48.748;9.656;2023-08-07T19:05:17;0.50;0.50;0.25
46591;PMS6003;32314;48.748;9.656;2023-08-07T19:08:03;2.00;1.00;1.00
46591;PMS6003;32314;48.748;9.656;2023-08-07T19:11:03;1.00;1.00;1.00
46591;PMS6003;32314;48.748;9.656;2023-08-07T19:14:10;0.00;0.00;0.00
46591;PMS6003;32314;48.748;9.656;2023-08-07T19:16:56;0.25;0.25;0.00
46591;PMS6003;32314;48.748;9.656;2023-08-07T19:19:53;3.25;1.00;1.00
46591;PMS6003;32314;48.748;9.656;2023-08-07T19:22:48;1.00;1.00;0.75
46591;PMS6003;32314;48.748;9.656;2023-08-07T19:25:50;1.00;1.00;0.50
46591;PMS6003;32314;48.748;9.656;2023-08-07T19:28:43;1.50;1.50;1.00
46591;PMS6003;32314;48.748;9.656;2023-08-07T19:31:32;2.00;2.00;1.00
46591;PMS6003;32314;48.748;9.656;2023-08-07T19:34:18;1.00;1.00;1.00
46591;PMS6003;32314;48.748;9.656;2023-08-07T19:37:15;2.50;1.00;1.00
46591;PMS6003;32314;48.748;9.656;2023-08-07T19:40:15;1.00;1.00;1.00
46591;PMS6003;32314;48.748;9.656;2023-08-07T19:43:12;1.00;1.00;1.00
46591;PMS6003;32314;48.748;9.656;2023-08-07T19:46:09;1.00;1.00;1.00
46591;PMS6003;32314;48.748;9.656;2023-08-07T19:49:04;0.00;0.00;0.00
46591;PMS6003;32314;48.748;9.656;2023-08-07T19:51:58;0.50;0.50;0.50
46591;PMS6003;32314;48.748;9.656;2023-08-07T19:54:44;3.75;1.00;1.00